San Diego, CA

1:36 AM PST on February 25, 2017 (GMT -0800)
Union Square Condominiums | | Change Station

Elev 79 ft 32.72 °N, 117.15 °W | Updated 21 minutes ago

Clear
Clear
48.4 °F
Feels Like 48 °F
N
0.0
Wind Variable Wind from SSW

Today
High -- | Low -- °F
--% Chance of Precip.
Yesterday
High -- | Low -- °F
Precip. -- in
Pressure 30.18 in
Visibility 10.0 miles
Clouds Clear
Windchill 48 °F
Dew Point 41 °F
Humidity 76%
Rainfall 0.00 in
Snow Depth Not available.
6:20 AM 5:43 PM
Waning Crescent, 2% visible
METAR KSAN 250851Z 04004KT 10SM CLR 11/02 A3018 RMK AO2 SLP220 T01060022 58004
Pressure 30.18 in
Visibility 10.0 miles
Clouds Clear
Windchill 48 °F
Dew Point 41 °F
Humidity 76%
Rainfall 0.00 in
Snow Depth Not available.
6:20 AM 5:43 PM
Waning Crescent, 2% visible
METAR KSAN 250851Z 04004KT 10SM CLR 11/02 A3018 RMK AO2 SLP220 T01060022 58004

Get Your Daily Forecast Email!

Thanks for signing up!

Be on the lookout for a verification email in your inbox.

You'll start receiving the daily forecast at 8 AM.

×

10-Day Weather Forecast

Almanac

Astronomy

Feb. 25, 2017 Rise Set
Actual Time
Civil Twilight
Nautical Twilight
Astronomical Twilight
Moon
Length of Visible Light
Length of Day
Tomorrow will be .
, % of the Moon is Illuminated

Today's Extremes

State Highs State Lows

Community

WunderPhotos

Upload Photos

1,962,540 photos uploaded!

WunderBlog® & News

Nearby

Air Quality

  Air Quality AQ Index Pollutant
Not available.

Snow Depth

Station Depth Elevation

Earthquake Activity

City Distance Mag. Time & Date
Minimum magnitude displayed is 2.5.

Coastal Water Temperatures

Place Temperature

Stations

Nearby Weather Stations

Station Location Temp. Windchill Dew Point Humidity Wind Precip. Elev Updated Type
                   

Watches & Warnings

There are currently no watches in effect.